Time;durP1;ratioP1;P1;durP2;ratioP2;P2;SDS_P1;SDS_P2;PMS_P1;PMS_P2;Temp;Humidity;BMP_temperature;BMP_pressure;BME280_temperature;BME280_humidity;BME280_pressure;Samples;Min_cycle;Max_cycle;Signal;HPM_P1;HPM_P2
2023/05/06 00:00:14;;;;;;;2.65;1.88;;;13.60;99.90;;;13.17;100.00;97307.53;4892374;29;20040;-40
2023/05/06 00:02:40;;;;;;;2.50;1.65;;;13.50;99.90;;;13.18;100.00;97313.69;4895707;29;20054;-40
2023/05/06 00:05:06;;;;;;;3.05;1.70;;;13.50;99.90;;;13.17;100.00;97315.47;4894672;29;20025;-40
2023/05/06 00:07:32;;;;;;;2.33;1.70;;;13.50;99.90;;;13.15;100.00;97321.75;4895877;29;20119;-40
2023/05/06 00:09:58;;;;;;;2.38;1.40;;;13.50;99.90;;;13.11;100.00;97321.06;4894814;29;20024;-41
2023/05/06 00:12:23;;;;;;;1.60;1.40;;;13.40;99.90;;;13.08;100.00;97315.94;4895813;29;20087;-40
2023/05/06 00:14:49;;;;;;;3.20;1.85;;;13.40;99.90;;;13.04;100.00;97316.13;4893690;29;20032;-42
2023/05/06 00:17:15;;;;;;;9.93;1.70;;;13.30;99.90;;;12.99;100.00;97314.56;4892810;29;20079;-41
2023/05/06 00:19:41;;;;;;;1.48;1.27;;;13.30;99.90;;;12.96;100.00;97309.41;4893137;29;20032;-41
2023/05/06 00:22:06;;;;;;;2.33;1.40;;;13.30;99.90;;;12.97;100.00;97304.97;4892971;29;20432;-41
2023/05/06 00:24:32;;;;;;;3.92;1.75;;;13.30;99.90;;;12.95;100.00;97310.34;4889491;29;20040;-41
2023/05/06 00:26:58;;;;;;;2.28;1.55;;;13.30;99.90;;;12.94;100.00;97315.72;4893975;29;20472;-40
2023/05/06 00:29:24;;;;;;;2.90;1.50;;;13.30;99.90;;;12.81;100.00;97296.91;4891526;29;20043;-40
2023/05/06 00:31:49;;;;;;;2.58;1.40;;;13.20;99.90;;;12.84;100.00;97306.50;4888743;29;20111;-39
2023/05/06 00:34:15;;;;;;;1.50;1.38;;;13.20;99.90;;;12.74;100.00;97298.13;4892292;29;20031;-40
2023/05/06 00:36:41;;;;;;;3.65;1.80;;;13.10;99.90;;;12.72;100.00;97308.81;4893072;29;20036;-40
2023/05/06 00:39:08;;;;;;;1.98;1.40;;;13.10;99.90;;;12.63;100.00;97303.91;4892949;29;20565;-41
2023/05/06 00:41:34;;;;;;;2.55;1.38;;;13.00;99.90;;;12.60;100.00;97317.31;4891722;29;20125;-40
2023/05/06 00:44:00;;;;;;;2.00;1.60;;;12.90;99.90;;;12.52;100.00;97311.50;4896982;29;21162;-40
2023/05/06 00:46:26;;;;;;;2.50;1.60;;;12.90;99.90;;;12.48;100.00;97308.16;4892911;29;20051;-41
2023/05/06 00:48:52;;;;;;;2.38;1.52;;;12.80;99.90;;;12.38;100.00;97291.84;4894379;29;20091;-41
2023/05/06 00:51:18;;;;;;;2.92;1.70;;;12.80;99.90;;;12.39;100.00;97300.63;4893884;29;20071;-41
2023/05/06 00:53:47;;;;;;;5.68;1.83;;;12.80;99.90;;;12.38;100.00;97304.19;4894252;29;20036;-40
2023/05/06 00:56:12;;;;;;;2.28;1.70;;;12.70;99.90;;;12.34;100.00;97303.47;4893530;29;20469;-41
2023/05/06 00:58:38;;;;;;;3.42;1.67;;;12.70;99.90;;;12.32;100.00;97299.22;4876888;29;20048;-42
2023/05/06 01:01:04;;;;;;;2.38;1.70;;;12.70;99.90;;;12.31;100.00;97301.00;4894393;29;20037;-40
2023/05/06 01:03:30;;;;;;;1.60;1.50;;;12.60;99.90;;;12.31;100.00;97300.13;4890803;29;20131;-40
2023/05/06 01:06:35;;;;;;;3.92;1.60;;;12.70;99.90;;;12.32;100.00;97305.34;4877316;29;20557;-41
2023/05/06 01:09:21;;;;;;;2.40;1.75;;;12.60;99.90;;;12.32;100.00;97305.34;4875538;29;20539;-40
2023/05/06 01:12:00;;;;;;;1.85;1.70;;;12.70;99.90;;;12.37;100.00;97302.50;4892939;29;20066;-40
2023/05/06 01:15:12;;;;;;;3.53;1.60;;;12.70;99.90;;;12.38;100.00;97304.19;4877302;29;20123;-40
2023/05/06 01:17:45;;;;;;;3.40;1.83;;;12.70;99.90;;;12.37;100.00;97302.50;4891417;29;21946;-40
2023/05/06 01:20:11;;;;;;;4.80;1.75;;;12.70;99.90;;;12.39;100.00;97303.28;4895210;29;20063;-40
2023/05/06 01:22:38;;;;;;;1.88;1.42;;;12.70;99.90;;;12.37;100.00;97298.06;4890468;29;21142;-40
2023/05/06 01:25:05;;;;;;;4.85;1.90;;;12.70;99.90;;;12.29;100.00;97289.63;4891223;29;20032;-41
2023/05/06 01:27:30;;;;;;;3.92;1.88;;;12.70;99.90;;;12.33;100.00;97296.50;4890546;29;20747;-41
2023/05/06 01:29:57;;;;;;;2.20;1.55;;;12.70;99.90;;;12.31;100.00;97301.00;4890966;29;20047;-40
2023/05/06 01:32:22;;;;;;;2.90;1.75;;;12.70;99.90;;;12.31;100.00;97303.66;4874329;29;20142;-40
2023/05/06 01:35:11;;;;;;;2.28;1.60;;;12.70;99.90;;;12.31;100.00;97297.47;4895078;29;20448;-41
2023/05/06 01:38:02;;;;;;;2.25;1.50;;;12.70;99.90;;;12.33;100.00;97301.78;4874009;29;20043;-40
2023/05/06 01:40:30;;;;;;;3.55;1.70;;;12.70;99.90;;;12.35;100.00;97299.91;4893360;29;20446;-39
2023/05/06 01:42:56;;;;;;;2.25;1.70;;;12.60;99.90;;;12.37;100.00;97303.34;4877163;29;20104;-40
2023/05/06 01:45:26;;;;;;;3.03;1.80;;;12.70;99.90;;;12.39;100.00;97305.94;4888636;29;20043;-40
2023/05/06 01:47:53;;;;;;;3.92;2.00;;;12.70;99.90;;;12.39;100.00;97306.78;4876334;29;20043;-40
2023/05/06 01:50:18;;;;;;;2.67;1.90;;;12.70;99.90;;;12.39;100.00;97312.06;4891675;29;20067;-41
2023/05/06 01:52:44;;;;;;;5.47;1.70;;;12.70;99.90;;;12.37;100.00;97303.34;4875974;29;20035;-40
2023/05/06 01:55:10;;;;;;;3.75;1.90;;;12.70;99.90;;;12.32;100.00;97300.06;4892370;29;20070;-40
2023/05/06 01:57:35;;;;;;;2.30;1.45;;;12.70;99.90;;;12.32;100.00;97297.41;4889309;29;20055;-40
2023/05/06 02:00:01;;;;;;;3.53;1.80;;;12.70;99.90;;;12.39;100.00;97306.78;4894616;29;20549;-41
2023/05/06 02:02:27;;;;;;;2.22;1.77;;;12.70;99.90;;;12.38;100.00;97304.19;4893432;29;20047;-40
2023/05/06 02:04:53;;;;;;;3.00;1.80;;;12.70;99.90;;;12.38;100.00;97312.13;4888578;29;20040;-40
2023/05/06 02:07:18;;;;;;;2.53;1.90;;;12.70;99.90;;;12.39;100.00;97309.44;4891114;29;20110;-41
2023/05/06 02:09:44;;;;;;;3.17;1.88;;;12.70;99.90;;;12.41;100.00;97307.56;4893109;29;20447;-40
2023/05/06 02:12:10;;;;;;;2.53;1.70;;;12.80;99.90;;;12.44;100.00;97308.38;4893250;29;20072;-40
2023/05/06 02:14:36;;;;;;;2.63;2.00;;;12.80;99.90;;;12.45;100.00;97300.34;4868939;29;20387;-40
2023/05/06 02:17:05;;;;;;;2.67;1.90;;;12.80;99.90;;;12.47;100.00;97303.81;4884826;29;20036;-41
2023/05/06 02:19:31;;;;;;;3.28;2.05;;;12.80;99.90;;;12.40;100.00;97291.78;4889777;29;20380;-41
2023/05/06 02:21:56;;;;;;;2.40;1.90;;;12.80;99.90;;;12.49;100.00;97306.34;4888664;29;20496;-40
2023/05/06 02:24:22;;;;;;;4.07;2.10;;;12.80;99.90;;;12.49;100.00;97315.16;4890979;29;20123;-40
2023/05/06 02:26:48;;;;;;;2.10;1.83;;;12.80;99.90;;;12.50;100.00;97310.72;4890846;29;20480;-40
2023/05/06 02:29:14;;;;;;;2.90;1.90;;;12.80;99.90;;;12.51;100.00;97313.31;4892484;29;20056;-41
2023/05/06 02:31:39;;;;;;;2.53;1.85;;;12.80;99.90;;;12.52;100.00;97306.22;4888599;29;20142;-43
2023/05/06 02:34:07;;;;;;;2.30;1.98;;;12.80;99.90;;;12.52;100.00;97300.94;4889551;29;20326;-40
2023/05/06 02:36:33;;;;;;;2.50;2.05;;;12.80;99.90;;;12.52;100.00;97299.13;4886860;29;20028;-42
2023/05/06 02:38:59;;;;;;;3.58;2.17;;;12.90;99.90;;;12.52;100.00;97306.22;4888409;29;20342;-41
2023/05/06 02:41:24;;;;;;;4.28;2.15;;;12.90;99.90;;;12.49;100.00;97298.41;4891919;29;20040;-41
2023/05/06 02:43:50;;;;;;;3.28;1.85;;;12.90;99.90;;;12.50;100.00;97289.56;4888850;29;20377;-40
2023/05/06 02:46:16;;;;;;;3.13;1.90;;;12.90;99.90;;;12.52;100.00;97288.56;4890957;29;20032;-41
2023/05/06 02:48:42;;;;;;;3.85;2.40;;;12.80;99.90;;;12.52;100.00;97293.00;4887635;29;20123;-40
2023/05/06 02:51:07;;;;;;;2.63;2.00;;;12.80;99.90;;;12.51;100.00;97288.66;4892888;29;20036;-40
2023/05/06 02:53:33;;;;;;;3.72;2.00;;;12.90;99.90;;;12.51;100.00;97278.06;4892639;29;20036;-42
2023/05/06 02:55:59;;;;;;;4.50;2.10;;;12.80;99.90;;;12.50;100.00;97285.13;4892186;29;20040;-40
2023/05/06 02:58:25;;;;;;;4.00;2.28;;;12.80;99.90;;;12.50;100.00;97284.28;4890366;29;20040;-42
2023/05/06 03:00:50;;;;;;;5.18;3.00;;;12.80;99.90;;;12.50;100.00;97286.91;4887415;29;20028;-41
2023/05/06 03:03:16;;;;;;;2.70;2.22;;;12.80;99.90;;;12.48;100.00;97280.84;4892162;29;20275;-40
2023/05/06 03:05:42;;;;;;;3.28;2.05;;;12.80;99.90;;;12.49;100.00;97286.06;4891498;29;20740;-40
2023/05/06 03:08:08;;;;;;;1.98;1.77;;;12.90;99.90;;;12.49;100.00;97286.06;4894910;29;20453;-40
2023/05/06 03:10:34;;;;;;;4.55;2.40;;;12.90;99.90;;;12.41;100.00;97285.56;4895204;29;20035;-40
2023/05/06 03:12:59;;;;;;;3.53;2.40;;;12.80;99.90;;;12.49;100.00;97290.47;4897235;29;20048;-40
2023/05/06 03:15:26;;;;;;;3.10;2.50;;;12.80;99.90;;;12.46;100.00;97295.94;4888519;29;20485;-40
2023/05/06 03:17:51;;;;;;;5.32;3.03;;;12.80;99.90;;;12.44;100.00;97297.78;4891554;29;20123;-40
2023/05/06 03:20:17;;;;;;;3.55;2.45;;;12.80;99.90;;;12.41;100.00;97294.34;4892039;29;20044;-41
2023/05/06 03:22:43;;;;;;;2.83;2.35;;;12.80;99.90;;;12.43;100.00;97296.06;4892331;29;20095;-41
2023/05/06 03:25:09;;;;;;;4.05;2.80;;;12.80;99.90;;;12.36;100.00;97282.25;4892917;29;20040;-40
2023/05/06 03:27:35;;;;;;;3.75;2.75;;;12.80;99.90;;;12.43;100.00;97285.50;4892791;29;20028;-41
2023/05/06 03:30:00;;;;;;;2.67;2.10;;;12.80;99.90;;;12.40;100.00;97286.50;4895350;29;20044;-40
2023/05/06 03:32:26;;;;;;;3.47;2.30;;;12.80;99.90;;;12.42;100.00;97295.22;4889659;29;20028;-40
2023/05/06 03:34:52;;;;;;;3.97;2.55;;;12.80;99.90;;;12.40;100.00;97282.06;4890623;29;20073;-41
2023/05/06 03:37:18;;;;;;;3.40;2.30;;;12.80;99.90;;;12.39;100.00;97287.41;4890966;29;20493;-41
2023/05/06 03:39:43;;;;;;;4.18;2.63;;;12.70;99.90;;;12.34;100.00;97289.41;4893329;29;20131;-40
2023/05/06 03:42:09;;;;;;;2.72;2.15;;;12.70;99.90;;;12.34;100.00;97282.31;4890573;29;20370;-40
2023/05/06 03:44:35;;;;;;;3.53;2.20;;;12.70;99.90;;;12.29;100.00;97291.41;4892100;29;20020;-40
2023/05/06 03:47:00;;;;;;;4.93;2.72;;;12.60;99.90;;;12.24;100.00;97291.63;4888418;29;20032;-41
2023/05/06 03:49:26;;;;;;;3.65;2.45;;;12.60;99.90;;;12.17;100.00;97279.63;4895834;29;20028;-40
2023/05/06 03:51:52;;;;;;;4.10;2.50;;;12.60;99.90;;;12.12;100.00;97277.16;4892351;29;20039;-41
2023/05/06 03:54:18;;;;;;;2.30;2.10;;;12.50;99.90;;;12.05;100.00;97277.53;4893830;29;20070;-40
2023/05/06 03:56:43;;;;;;;5.53;2.70;;;12.40;99.90;;;11.92;100.00;97275.41;4883705;29;20051;-40
2023/05/06 03:59:09;;;;;;;5.63;2.97;;;12.30;99.90;;;11.78;100.00;97268.06;4884217;29;20530;-39
2023/05/06 04:01:35;;;;;;;5.05;2.67;;;12.20;99.90;;;11.71;100.00;97273.69;4879607;29;20048;-39
2023/05/06 04:04:00;;;;;;;4.55;2.92;;;12.10;99.90;;;11.57;100.00;97267.19;4889287;29;20485;-39
2023/05/06 04:06:26;;;;;;;4.47;2.50;;;12.00;99.90;;;11.57;100.00;97274.28;4890412;29;20071;-39
2023/05/06 04:08:52;;;;;;;9.82;3.22;;;11.90;99.90;;;11.50;100.00;97271.03;4892525;29;20412;-40
2023/05/06 04:11:18;;;;;;;3.17;2.60;;;11.80;99.90;;;11.45;100.00;97275.69;4886183;29;20032;-39
2023/05/06 04:13:43;;;;;;;3.33;2.30;;;11.80;99.90;;;11.42;100.00;97276.66;4892222;29;20043;-41
2023/05/06 04:16:09;;;;;;;4.15;2.50;;;11.70;99.90;;;11.38;100.00;97277.72;4885011;29;20476;-40
2023/05/06 04:18:35;;;;;;;3.40;2.60;;;11.70;99.90;;;11.36;100.00;97274.28;4883880;29;20115;-40
2023/05/06 04:21:00;;;;;;;7.55;2.85;;;11.70;99.90;;;11.33;100.00;97279.69;4887852;29;20036;-39
2023/05/06 04:23:26;;;;;;;4.90;3.00;;;11.60;99.90;;;11.33;100.00;97284.09;4890301;29;20024;-40
2023/05/06 04:25:52;;;;;;;5.47;2.78;;;11.60;99.90;;;11.25;100.00;97273.84;4887547;29;20040;-40
2023/05/06 04:28:17;;;;;;;3.35;2.28;;;11.60;99.90;;;11.30;100.00;97286.88;4893402;29;20094;-41
2023/05/06 04:30:44;;;;;;;4.20;2.83;;;11.60;99.90;;;11.24;100.00;97286.19;4891260;29;20652;-42
2023/05/06 04:33:10;;;;;;;4.40;2.50;;;11.60;99.90;;;11.26;100.00;97288.78;4896485;29;20036;-39
2023/05/06 04:35:36;;;;;;;3.10;2.40;;;11.60;99.90;;;11.27;100.00;97282.59;4895355;29;20296;-40
2023/05/06 04:38:02;;;;;;;3.53;2.60;;;11.60;99.90;;;11.27;100.00;97288.72;4890114;29;20032;-40
2023/05/06 04:40:28;;;;;;;2.42;2.00;;;11.60;99.90;;;11.30;100.00;97295.63;4891497;29;20091;-40
2023/05/06 04:42:54;;;;;;;3.63;2.40;;;11.60;99.90;;;11.33;100.00;97299.94;4892107;29;20044;-40
2023/05/06 04:45:21;;;;;;;2.70;2.20;;;11.60;99.90;;;11.37;100.00;97304.16;4897260;29;20039;-40
2023/05/06 04:47:47;;;;;;;3.00;2.33;;;11.70;99.90;;;11.40;100.00;97304.06;4895625;29;20060;-40
2023/05/06 04:50:13;;;;;;;2.72;2.25;;;11.70;99.90;;;11.40;100.00;97293.50;4895042;29;20594;-39
2023/05/06 04:52:39;;;;;;;3.55;2.47;;;11.80;99.90;;;11.35;100.00;97277.81;4892863;29;20028;-40
2023/05/06 04:55:05;;;;;;;4.10;2.30;;;11.80;99.90;;;11.56;100.00;97305.13;4895549;29;20064;-42
2023/05/06 04:57:31;;;;;;;2.25;1.90;;;11.90;99.90;;;11.62;100.00;97310.13;4894971;29;20616;-41
2023/05/06 04:59:57;;;;;;;3.33;2.20;;;11.90;99.90;;;11.70;100.00;97308.94;4894101;29;20036;-39
2023/05/06 05:02:23;;;;;;;4.18;2.20;;;12.00;99.90;;;11.63;100.00;97293.38;4894092;29;20032;-39
2023/05/06 05:04:49;;;;;;;2.30;2.00;;;12.10;99.90;;;11.82;100.00;97316.34;4891961;29;20103;-41
2023/05/06 05:07:14;;;;;;;3.50;2.25;;;12.10;99.90;;;11.89;100.00;97312.50;4890265;29;20087;-40
2023/05/06 05:09:40;;;;;;;3.55;2.50;;;12.20;99.90;;;11.97;100.00;97317.47;4889965;29;20028;-38
2023/05/06 05:12:06;;;;;;;4.85;2.28;;;12.30;99.90;;;12.06;100.00;97319.75;4883873;29;20044;-38
2023/05/06 05:14:32;;;;;;;4.93;2.05;;;12.40;99.90;;;12.14;100.00;97322.88;4889030;29;20028;-40
2023/05/06 05:16:57;;;;;;;2.45;2.17;;;12.40;99.90;;;12.23;100.00;97319.84;4890672;29;20060;-40
2023/05/06 05:19:23;;;;;;;6.57;2.42;;;12.60;99.90;;;12.34;100.00;97324.63;4895961;29;20088;-42
2023/05/06 05:21:49;;;;;;;2.40;1.80;;;12.70;99.90;;;12.47;100.00;97330.25;4888997;29;20588;-39
2023/05/06 05:24:15;;;;;;;2.92;2.10;;;12.80;99.90;;;12.56;100.00;97323.66;4894613;29;20116;-40
2023/05/06 05:26:40;;;;;;;4.40;1.90;;;12.90;99.90;;;12.59;100.00;97316.44;4889874;29;20166;-39
2023/05/06 05:29:06;;;;;;;3.38;1.80;;;13.00;99.90;;;12.76;100.00;97330.69;4891904;29;20087;-40
2023/05/06 05:31:32;;;;;;;3.38;1.85;;;13.10;99.90;;;12.82;100.00;97334.84;4892809;29;20044;-39
2023/05/06 05:33:58;;;;;;;2.88;1.70;;;13.10;99.90;;;12.96;100.00;97342.97;4891552;29;20500;-42
2023/05/06 05:36:25;;;;;;;3.83;1.55;;;13.20;99.90;;;13.09;100.00;97348.53;4893430;29;20493;-41
2023/05/06 05:38:50;;;;;;;3.13;1.50;;;13.40;99.90;;;13.21;100.00;97347.97;4889938;29;20095;-39
2023/05/06 05:41:16;;;;;;;1.65;1.42;;;13.50;99.90;;;13.30;100.00;97339.56;4895646;29;20719;-39
2023/05/06 05:43:42;;;;;;;3.65;1.73;;;13.60;99.90;;;13.35;100.00;97342.00;4892138;29;20055;-41
2023/05/06 05:46:07;;;;;;;2.47;1.77;;;13.60;99.90;;;13.42;100.00;97340.75;4894217;29;20032;-41
2023/05/06 05:48:33;;;;;;;2.72;1.70;;;13.70;99.90;;;13.50;100.00;97343.91;4892164;29;20064;-40
2023/05/06 05:51:02;;;;;;;1.95;1.48;;;13.80;99.90;;;13.43;100.00;97317.81;4892762;29;20032;-41
2023/05/06 05:53:28;;;;;;;2.20;1.50;;;13.80;99.90;;;13.67;100.00;97352.81;4896350;29;20040;-40
2023/05/06 05:55:53;;;;;;;3.28;1.50;;;13.90;99.90;;;13.74;100.00;97349.75;4890891;29;22862;-40
2023/05/06 05:58:19;;;;;;;2.33;1.48;;;14.00;99.90;;;13.79;100.00;97349.53;4891017;29;20496;-39
2023/05/06 06:00:45;;;;;;;2.70;1.20;;;14.10;99.90;;;13.91;100.00;97342.78;4892300;29;20039;-40
2023/05/06 06:03:11;;;;;;;2.63;1.27;;;14.20;99.90;;;14.10;100.00;97353.25;4892799;29;20040;-40
2023/05/06 06:05:36;;;;;;;1.20;1.10;;;14.40;99.90;;;14.27;100.00;97341.78;4889863;29;20523;-40
2023/05/06 06:08:03;;;;;;;1.98;1.10;;;14.50;99.90;;;14.41;100.00;97352.53;4894289;29;20470;-40
2023/05/06 06:10:29;;;;;;;1.58;1.38;;;14.70;99.90;;;14.49;100.00;97347.66;4894210;29;20182;-41
2023/05/06 06:12:55;;;;;;;1.90;1.20;;;14.80;99.90;;;14.68;100.00;97358.19;4889661;29;20040;-39
2023/05/06 06:15:21;;;;;;;1.83;1.17;;;14.90;99.90;;;14.80;100.00;97358.44;4891013;29;20438;-40
2023/05/06 06:17:46;;;;;;;3.40;1.70;;;15.10;99.90;;;14.86;100.00;97360.78;4891258;29;20752;-39
2023/05/06 06:20:13;;;;;;;2.55;1.20;;;15.20;99.90;;;14.95;100.00;97356.72;4893231;29;20028;-42
2023/05/06 06:22:39;;;;;;;1.85;1.48;;;15.20;99.90;;;14.91;100.00;97356.03;4887482;29;20385;-42
2023/05/06 06:25:06;;;;;;;2.08;1.38;;;15.30;99.90;;;15.00;100.00;97360.00;4888344;29;20661;-41
2023/05/06 06:27:35;;;;;;;2.28;1.20;;;15.30;99.90;;;15.02;100.00;97347.50;4889980;29;20110;-40
2023/05/06 06:30:01;;;;;;;1.65;1.00;;;15.30;99.90;;;15.11;100.00;97360.28;4892669;29;20366;-40
2023/05/06 06:32:27;;;;;;;3.22;1.30;;;15.40;99.90;;;15.20;100.00;97361.53;4890961;29;20028;-40
2023/05/06 06:34:53;;;;;;;3.03;1.45;;;15.40;99.90;;;15.21;100.00;97360.59;4892434;29;20039;-40
2023/05/06 06:37:18;;;;;;;2.20;1.30;;;15.50;99.90;;;15.35;100.00;97362.50;4889944;29;20509;-40
2023/05/06 06:39:44;;;;;;;1.77;1.10;;;15.60;99.90;;;15.50;100.00;97366.06;4893505;29;20382;-40
2023/05/06 06:42:10;;;;;;;1.88;1.45;;;15.70;99.90;;;15.56;100.00;97368.34;4895464;29;20087;-39
2023/05/06 06:44:36;;;;;;;4.80;1.50;;;15.80;99.90;;;15.55;100.00;97372.81;4892107;29;20035;-40
2023/05/06 06:47:02;;;;;;;3.80;1.40;;;15.80;99.90;;;15.49;100.00;97369.66;4895385;29;20386;-39
2023/05/06 06:49:29;;;;;;;2.65;1.23;;;15.80;99.90;;;15.50;100.00;97360.75;4898253;29;20076;-41
2023/05/06 06:51:56;;;;;;;1.60;1.10;;;15.80;99.90;;;15.64;100.00;97376.75;4894586;29;20043;-40
2023/05/06 06:54:22;;;;;;;1.45;1.00;;;15.90;99.90;;;15.68;100.00;97366.81;4897326;29;20033;-40
2023/05/06 06:56:48;;;;;;;2.33;1.33;;;15.90;99.90;;;15.69;100.00;97374.69;4892673;29;20048;-41
2023/05/06 06:59:13;;;;;;;2.20;1.20;;;15.90;99.90;;;15.54;100.00;97357.84;4898236;29;20040;-41
2023/05/06 07:01:42;;;;;;;3.80;1.20;;;15.80;99.90;;;15.58;100.00;97371.81;4890861;29;20130;-41
2023/05/06 07:04:08;;;;;;;3.03;1.27;;;15.80;99.90;;;15.67;100.00;97379.25;4895525;29;20071;-51
2023/05/06 07:06:33;;;;;;;3.78;1.70;;;15.80;99.90;;;15.63;100.00;97380.34;4894698;29;20253;-41
2023/05/06 07:08:59;;;;;;;3.60;1.30;;;15.80;99.90;;;15.64;100.00;97385.59;4878360;29;20031;-40
2023/05/06 07:11:25;;;;;;;3.15;1.48;;;15.80;99.90;;;15.73;100.00;97378.03;4895962;29;20028;-40
2023/05/06 07:13:50;;;;;;;3.28;1.30;;;15.90;99.90;;;15.92;100.00;97383.19;4893310;29;20073;-40
2023/05/06 07:16:16;;;;;;;2.15;1.50;;;16.00;99.90;;;16.02;100.00;97386.97;4895235;29;20480;-40
2023/05/06 07:18:42;;;;;;;1.90;1.50;;;16.10;99.90;;;16.11;100.00;97382.94;4894702;29;20039;-40
2023/05/06 07:21:07;;;;;;;1.60;1.08;;;16.20;99.90;;;16.12;100.00;97382.00;4897476;29;20044;-41
2023/05/06 07:23:33;;;;;;;2.00;1.10;;;16.30;99.90;;;16.05;100.00;97388.63;4900262;29;20095;-39
2023/05/06 07:25:59;;;;;;;3.00;1.15;;;16.20;99.90;;;16.07;100.00;97390.22;4888609;29;20496;-39
2023/05/06 07:28:25;;;;;;;2.70;1.60;;;16.20;99.90;;;16.15;100.00;97390.66;4894730;29;20037;-41
2023/05/06 07:30:51;;;;;;;2.83;1.35;;;16.30;99.90;;;16.30;100.00;97394.19;4893889;29;20148;-40
2023/05/06 07:33:17;;;;;;;3.45;1.42;;;16.40;99.90;;;16.41;100.00;97391.72;4897472;29;20112;-41
2023/05/06 07:35:43;;;;;;;2.78;1.20;;;16.50;99.90;;;16.42;100.00;97401.44;4892168;29;20028;-39
2023/05/06 07:38:09;;;;;;;2.00;1.30;;;16.60;99.90;;;16.31;100.00;97405.69;4902605;23;20668;-42
2023/05/06 07:40:34;;;;;;;5.38;1.50;;;16.50;99.90;;;16.30;100.00;97393.34;4875465;29;20036;-41
2023/05/06 07:43:01;;;;;;;2.45;1.50;;;16.60;99.90;;;16.37;100.00;97403.50;4868447;29;20040;-41
2023/05/06 07:45:27;;;;;;;3.63;1.35;;;16.60;99.90;;;16.54;100.00;97394.50;4871352;29;20617;-41
2023/05/06 07:47:53;;;;;;;3.50;1.50;;;16.80;99.90;;;16.96;100.00;97392.81;4868828;29;20147;-40
2023/05/06 07:50:18;;;;;;;2.78;1.40;;;17.20;99.90;;;17.42;100.00;97398.84;4875878;29;20428;-40
2023/05/06 07:52:44;;;;;;;3.75;1.90;;;17.70;99.90;;;17.53;100.00;97398.97;4869867;29;20441;-40
2023/05/06 07:55:10;;;;;;;2.78;1.20;;;18.00;99.90;;;17.63;100.00;97400.09;4871724;29;20052;-41
2023/05/06 07:57:36;;;;;;;2.70;1.38;;;18.00;99.90;;;17.41;100.00;97411.31;4875349;29;20044;-41
2023/05/06 08:00:02;;;;;;;2.42;1.50;;;17.80;99.90;;;17.19;100.00;97411.81;4874843;29;20513;-41
2023/05/06 08:02:29;;;;;;;4.22;1.48;;;17.60;99.90;;;16.92;100.00;97401.97;4872034;29;20064;-41
2023/05/06 08:04:54;;;;;;;2.63;1.33;;;17.30;99.90;;;16.85;100.00;97410.41;4871398;29;20038;-40
2023/05/06 08:07:20;;;;;;;1.60;1.00;;;17.10;99.90;;;16.75;100.00;97413.63;4872732;29;20669;-40
2023/05/06 08:09:46;;;;;;;3.95;1.10;;;17.00;99.90;;;16.72;100.00;97410.28;4872844;29;20148;-43
2023/05/06 08:12:11;;;;;;;4.63;1.27;;;17.00;99.90;;;16.72;100.00;97418.28;4875866;29;20044;-40
2023/05/06 08:14:37;;;;;;;1.52;0.95;;;17.10;99.90;;;16.90;100.00;97416.31;4871226;29;20524;-41
2023/05/06 08:17:03;;;;;;;1.38;0.90;;;17.20;99.90;;;17.23;100.00;97418.69;4872599;29;20037;-41
2023/05/06 08:19:28;;;;;;;1.83;1.02;;;17.50;99.90;;;17.67;100.00;97414.94;4876745;29;20036;-39
2023/05/06 08:21:55;;;;;;;3.65;1.38;;;18.00;99.90;;;17.99;92.05;97419.16;4873636;29;20802;-40
2023/05/06 08:24:21;;;;;;;1.77;0.98;;;18.30;99.90;;;18.37;88.10;97405.88;4874980;29;20053;-39
2023/05/06 08:26:47;;;;;;;1.08;0.90;;;18.50;99.90;;;18.73;90.82;97420.31;4870245;29;20531;-40
2023/05/06 08:29:13;;;;;;;2.85;1.10;;;18.80;99.90;;;18.74;86.97;97400.66;4876988;29;20362;-41
2023/05/06 08:31:38;;;;;;;1.92;0.88;;;19.10;99.90;;;19.04;86.84;97411.03;4873662;29;20041;-40
2023/05/06 08:34:04;;;;;;;2.58;1.13;;;19.30;99.90;;;19.03;85.93;97413.81;4874358;29;20040;-39
2023/05/06 08:36:30;;;;;;;1.67;0.98;;;19.40;99.90;;;18.97;86.95;97414.22;4872110;29;20033;-39
2023/05/06 08:38:55;;;;;;;2.08;1.10;;;19.40;99.90;;;18.80;83.74;97408.22;4867807;29;20159;-40
2023/05/06 08:41:23;;;;;;;3.78;1.30;;;19.30;99.90;;;18.73;84.92;97414.13;4879781;29;20036;-41
2023/05/06 08:43:49;;;;;;;0.90;0.82;;;19.20;99.90;;;18.78;91.88;97414.66;4826374;29;20128;-41
2023/05/06 08:46:16;;;;;;;4.10;1.33;;;19.20;99.90;;;18.77;89.96;97410.25;4866336;29;20120;-41
2023/05/06 08:48:42;;;;;;;3.03;1.30;;;19.30;99.90;;;18.79;92.26;97417.22;4867801;29;20124;-41
2023/05/06 08:51:09;;;;;;;2.35;1.35;;;19.30;99.90;;;18.84;88.04;97414.25;4863186;29;20661;-39
2023/05/06 08:53:35;;;;;;;4.50;1.20;;;19.30;99.90;;;18.84;93.01;97409.78;4872527;29;20378;-40
2023/05/06 08:56:07;;;;;;;4.50;1.35;;;19.20;99.90;;;18.68;89.27;97412.63;4871210;29;20028;-41
2023/05/06 08:58:34;;;;;;;3.70;1.40;;;19.10;99.90;;;18.33;83.74;97416.88;4867669;29;20097;-42
2023/05/06 09:01:01;;;;;;;1.98;0.90;;;18.70;99.90;;;18.10;85.26;97414.78;4865533;29;20050;-40
2023/05/06 09:03:27;;;;;;;3.03;0.93;;;18.50;99.90;;;17.97;79.20;97416.56;4874951;29;20044;-41
2023/05/06 09:05:53;;;;;;;1.15;0.70;;;18.30;99.90;;;17.96;85.40;97420.19;4874741;29;20387;-40
2023/05/06 09:08:19;;;;;;;2.20;0.90;;;18.20;99.90;;;18.03;84.54;97416.16;4872651;29;20043;-40
2023/05/06 09:10:46;;;;;;;1.13;0.90;;;18.30;99.90;;;18.12;78.74;97414.69;4875259;29;20036;-40
2023/05/06 09:13:14;;;;;;;4.32;1.30;;;18.50;99.90;;;18.10;79.54;97422.78;4872295;29;20037;-39
2023/05/06 09:15:42;;;;;;;1.92;1.10;;;18.50;99.90;;;18.24;81.08;97410.34;4874941;29;20040;-40
2023/05/06 09:18:08;;;;;;;3.65;1.20;;;18.60;99.90;;;18.54;82.07;97418.06;4874105;29;20047;-40
2023/05/06 09:20:34;;;;;;;2.65;2.05;;;18.80;99.90;;;18.78;76.24;97420.00;4873270;29;20029;-41
2023/05/06 09:23:01;;;;;;;2.83;1.20;;;19.00;99.90;;;18.96;74.69;97416.06;4870348;29;20040;-40
2023/05/06 09:25:28;;;;;;;1.80;1.20;;;19.30;99.90;;;19.20;75.87;97408.13;4871948;29;20036;-40
2023/05/06 09:28:09;;;;;;;3.65;2.05;;;19.50;99.90;;;19.21;71.64;97406.31;4874413;29;20037;-41
2023/05/06 09:30:44;;;;;;;8.57;4.43;;;19.60;99.90;;;19.13;76.53;97408.66;4875901;29;20040;-40
2023/05/06 09:33:10;;;;;;;27.33;24.77;;;19.60;99.90;;;19.15;75.70;97409.41;4874816;29;20304;-39
2023/05/06 09:35:38;;;;;;;60.67;54.53;;;19.50;99.90;;;19.20;77.48;97405.47;4877131;29;20044;-40
2023/05/06 09:38:05;;;;;;;18.00;16.33;;;19.50;99.90;;;19.19;74.51;97409.09;4874420;29;20079;-40
2023/05/06 09:40:31;;;;;;;5.90;5.30;;;19.50;99.90;;;18.98;66.78;97413.28;4863912;29;20344;-40
2023/05/06 09:42:57;;;;;;;15.55;13.98;;;19.40;99.90;;;19.07;70.68;97407.28;4874182;29;20128;-39
2023/05/06 09:45:23;;;;;;;5.93;5.32;;;19.40;99.90;;;19.14;72.25;97402.34;4873527;29;20036;-40
2023/05/06 09:47:49;;;;;;;6.25;4.10;;;19.40;99.90;;;19.17;69.44;97399.47;4869823;29;20036;-40
2023/05/06 09:50:15;;;;;;;3.80;2.47;;;19.50;99.90;;;19.14;67.69;97399.69;4856978;29;20525;-39
2023/05/06 09:52:45;;;;;;;2.17;1.35;;;19.50;99.90;;;19.13;67.11;97396.16;4873902;29;20040;-41
2023/05/06 09:55:11;;;;;;;1.30;1.20;;;19.50;99.90;;;19.27;69.02;97390.69;4874983;29;20041;-40
2023/05/06 09:57:37;;;;;;;3.42;1.13;;;19.60;99.90;;;19.49;67.63;97394.47;4873835;29;20084;-40
2023/05/06 10:00:06;;;;;;;2.97;1.10;;;19.80;99.90;;;19.54;68.79;97380.72;4861922;29;20501;-41
2023/05/06 10:02:32;;;;;;;1.08;0.77;;;19.90;99.90;;;19.46;67.21;97383.97;4874536;29;20502;-41
2023/05/06 10:04:59;;;;;;;1.48;0.93;;;19.90;99.90;;;19.48;62.31;97382.03;4863206;29;20040;-39
2023/05/06 10:07:27;;;;;;;2.83;0.88;;;19.90;99.90;;;19.55;62.77;97379.78;4860244;29;20029;-40
2023/05/06 10:09:56;;;;;;;1.95;0.90;;;19.90;99.90;;;19.83;63.38;97375.94;4871241;29;20025;-39